createdAt,value
2023-03-24T00:02:05.973Z,100.00
2023-03-24T00:04:33.190Z,100.00
2023-03-24T00:07:02.980Z,100.00
2023-03-24T00:09:30.488Z,100.00
2023-03-24T00:11:58.092Z,100.00
2023-03-24T00:14:25.277Z,100.00
2023-03-24T00:16:51.744Z,100.00
2023-03-24T00:19:18.643Z,100.00
2023-03-24T00:21:44.941Z,100.00
2023-03-24T00:24:12.910Z,100.00
2023-03-24T00:26:44.299Z,100.00
2023-03-24T00:29:13.307Z,100.00
2023-03-24T00:31:39.784Z,100.00
2023-03-24T00:34:09.102Z,100.00
2023-03-24T00:36:36.322Z,100.00
2023-03-24T00:39:05.932Z,100.00
2023-03-24T00:41:32.559Z,100.00
2023-03-24T00:44:01.929Z,100.00
2023-03-24T00:46:31.099Z,100.00
2023-03-24T00:49:06.773Z,100.00
2023-03-24T00:51:39.016Z,100.00
2023-03-24T00:54:10.105Z,100.00
2023-03-24T00:56:38.028Z,100.00
2023-03-24T00:59:07.133Z,100.00
2023-03-24T01:01:41.616Z,100.00
2023-03-24T01:04:12.247Z,100.00
2023-03-24T01:06:39.025Z,100.00
2023-03-24T01:09:10.111Z,100.00
2023-03-24T01:11:44.388Z,100.00
2023-03-24T01:14:13.955Z,100.00
2023-03-24T01:16:43.452Z,100.00
2023-03-24T01:19:14.220Z,100.00
2023-03-24T01:21:40.863Z,100.00
2023-03-24T01:24:12.593Z,99.97
2023-03-24T01:26:41.364Z,99.78
2023-03-24T01:29:07.812Z,99.29
2023-03-24T01:31:35.080Z,99.60
2023-03-24T01:34:02.023Z,99.73
2023-03-24T01:36:30.898Z,99.31
2023-03-24T01:39:05.607Z,99.77
2023-03-24T01:41:37.467Z,99.83
2023-03-24T01:44:43.635Z,99.55
2023-03-24T01:47:09.865Z,99.99
2023-03-24T01:49:50.401Z,99.69
2023-03-24T01:52:26.785Z,99.72
2023-03-24T01:54:54.951Z,99.30
2023-03-24T01:57:28.706Z,99.60
2023-03-24T01:59:58.898Z,100.00
2023-03-24T02:02:27.441Z,100.00
2023-03-24T02:04:59.744Z,100.00
2023-03-24T02:07:41.909Z,100.00
2023-03-24T02:10:16.488Z,100.00
2023-03-24T02:12:44.433Z,100.00
2023-03-24T02:15:13.812Z,100.00
2023-03-24T02:18:00.447Z,100.00
2023-03-24T02:21:04.098Z,100.00
2023-03-24T02:24:05.646Z,100.00
2023-03-24T02:26:52.302Z,100.00
2023-03-24T02:30:09.204Z,100.00
2023-03-24T02:32:44.833Z,100.00
2023-03-24T02:35:43.381Z,100.00
2023-03-24T02:38:37.774Z,100.00
2023-03-24T02:41:33.189Z,99.76
2023-03-24T02:44:11.001Z,100.00
2023-03-24T02:46:49.139Z,98.45
2023-03-24T02:49:21.635Z,99.05
2023-03-24T02:51:56.462Z,98.03
2023-03-24T02:54:31.437Z,97.18
2023-03-24T02:57:20.095Z,97.28
2023-03-24T02:59:58.599Z,97.64
2023-03-24T03:02:36.183Z,97.70
2023-03-24T03:05:10.907Z,98.45
2023-03-24T03:07:37.897Z,97.57
2023-03-24T03:10:15.485Z,93.06
2023-03-24T03:12:44.178Z,91.14
2023-03-24T03:15:16.328Z,92.83
2023-03-24T03:17:48.954Z,91.82
2023-03-24T03:20:21.887Z,91.23
2023-03-24T03:23:00.692Z,87.28
2023-03-24T03:25:35.031Z,89.84
2023-03-24T03:28:04.543Z,88.85
2023-03-24T03:30:33.971Z,89.31
2023-03-24T03:33:06.828Z,89.38
2023-03-24T03:35:47.370Z,88.61
2023-03-24T03:38:22.654Z,88.82
2023-03-24T03:41:04.096Z,88.91
2023-03-24T03:43:33.310Z,89.61
2023-03-24T03:46:01.299Z,89.53
2023-03-24T03:48:28.671Z,90.14
2023-03-24T03:51:10.266Z,89.30
2023-03-24T03:53:54.629Z,91.61
2023-03-24T03:56:24.497Z,91.90
2023-03-24T03:58:51.085Z,91.94
2023-03-24T04:01:21.015Z,92.31
2023-03-24T04:04:08.384Z,92.42
2023-03-24T04:06:41.158Z,92.82
2023-03-24T04:09:54.206Z,92.76
2023-03-24T04:12:42.310Z,93.58
2023-03-24T04:15:17.093Z,93.31
2023-03-24T04:18:10.892Z,93.95
2023-03-24T04:20:50.311Z,93.00
2023-03-24T04:23:30.549Z,92.74
2023-03-24T04:26:04.868Z,92.82
2023-03-24T04:28:56.061Z,93.27
2023-03-24T04:31:40.751Z,93.39
2023-03-24T04:34:28.561Z,93.81
2023-03-24T04:37:05.361Z,92.93
2023-03-24T04:39:37.412Z,93.45
2023-03-24T04:42:08.574Z,93.51
2023-03-24T04:44:35.251Z,93.60
2023-03-24T04:47:05.376Z,93.15
2023-03-24T04:49:31.726Z,93.29
2023-03-24T04:51:58.152Z,94.07
2023-03-24T04:54:24.649Z,93.14
2023-03-24T04:57:03.200Z,92.94
2023-03-24T04:59:32.995Z,92.14
2023-03-24T05:02:00.370Z,92.12
2023-03-24T05:04:30.585Z,92.12
2023-03-24T05:06:58.526Z,91.59
2023-03-24T05:09:28.544Z,92.05
2023-03-24T05:12:02.182Z,92.17
2023-03-24T05:14:28.545Z,91.20
2023-03-24T05:16:56.159Z,91.47
2023-03-24T05:19:24.887Z,91.18
2023-03-24T05:21:51.274Z,90.93
2023-03-24T05:24:22.109Z,91.36
2023-03-24T05:26:48.446Z,91.06
2023-03-24T05:29:14.790Z,90.51
2023-03-24T05:31:42.296Z,91.37
2023-03-24T05:34:10.499Z,92.22
2023-03-24T05:36:36.803Z,91.21
2023-03-24T05:39:09.066Z,91.77
2023-03-24T05:41:35.442Z,90.77
2023-03-24T05:44:03.354Z,90.65
2023-03-24T05:46:32.831Z,91.47
2023-03-24T05:49:01.652Z,91.21
2023-03-24T05:51:28.234Z,90.91
2023-03-24T05:53:54.578Z,91.40
2023-03-24T05:56:20.944Z,91.48
2023-03-24T05:58:51.179Z,91.62
2023-03-24T06:01:19.684Z,91.25
2023-03-24T06:03:46.386Z,91.69
2023-03-24T06:06:13.104Z,91.41
2023-03-24T06:08:43.243Z,91.55
2023-03-24T06:11:09.637Z,91.00
2023-03-24T06:13:36.032Z,91.17
2023-03-24T06:16:08.113Z,91.39
2023-03-24T06:18:37.019Z,91.75
2023-03-24T06:21:06.436Z,91.36
2023-03-24T06:23:32.956Z,91.44
2023-03-24T06:25:59.601Z,91.27
2023-03-24T06:28:26.020Z,90.98
2023-03-24T06:30:52.989Z,89.96
2023-03-24T06:33:19.403Z,90.73
2023-03-24T06:35:46.289Z,90.15
2023-03-24T06:38:26.185Z,89.63
2023-03-24T06:40:52.582Z,89.94
2023-03-24T06:43:18.922Z,89.43
2023-03-24T06:45:45.996Z,88.52
2023-03-24T06:48:12.581Z,88.77
2023-03-24T06:50:42.199Z,89.14
2023-03-24T06:53:08.734Z,88.08
2023-03-24T06:55:35.118Z,88.32
2023-03-24T06:58:11.754Z,87.92
2023-03-24T07:00:38.101Z,86.77
2023-03-24T07:03:04.684Z,86.29
2023-03-24T07:05:31.555Z,86.26
2023-03-24T07:10:32.216Z,85.41
2023-03-24T07:13:04.793Z,84.84
2023-03-24T07:15:34.437Z,84.99
2023-03-24T07:18:02.088Z,84.92
2023-03-24T07:20:28.544Z,85.29
2023-03-24T07:23:00.858Z,85.40
2023-03-24T07:25:29.824Z,84.09
2023-03-24T07:27:59.227Z,84.40
2023-03-24T07:30:37.211Z,83.66
2023-03-24T07:33:09.877Z,84.44
2023-03-24T07:35:38.637Z,84.32
2023-03-24T07:38:05.567Z,84.39
2023-03-24T07:40:35.000Z,84.81
2023-03-24T07:43:10.753Z,85.22
2023-03-24T07:45:48.779Z,85.17
2023-03-24T07:48:16.900Z,84.19
2023-03-24T07:50:46.118Z,84.68
2023-03-24T08:06:58.737Z,81.50
2023-03-24T08:09:25.197Z,81.95
2023-03-24T08:11:51.604Z,82.25
2023-03-24T08:19:56.138Z,80.73
2023-03-24T08:22:28.345Z,79.27
2023-03-24T08:24:54.723Z,77.64
2023-03-24T08:27:21.450Z,76.48
2023-03-24T08:29:50.699Z,77.91
2023-03-24T08:40:26.962Z,76.05
2023-03-24T08:42:58.995Z,76.52
2023-03-24T08:45:31.802Z,75.20
2023-03-24T08:48:01.052Z,73.81
2023-03-24T08:50:29.970Z,73.76
2023-03-24T08:52:57.149Z,71.41
2023-03-24T08:55:30.602Z,71.64
2023-03-24T08:57:56.944Z,71.87
2023-03-24T09:00:26.096Z,71.71
2023-03-24T09:02:54.112Z,72.24
2023-03-24T09:05:32.888Z,71.86
2023-03-24T09:08:07.832Z,72.62
2023-03-24T09:10:34.328Z,74.22
2023-03-24T09:13:00.671Z,72.29
2023-03-24T09:15:29.440Z,73.15
2023-03-24T09:17:55.804Z,74.73
2023-03-24T09:20:22.203Z,75.68
2023-03-24T09:22:48.618Z,74.61
2023-03-24T09:25:18.614Z,73.16
2023-03-24T09:27:47.528Z,73.47
2023-03-24T09:30:19.349Z,72.16
2023-03-24T09:32:45.919Z,70.68
2023-03-24T09:35:15.087Z,69.31
2023-03-24T09:37:43.799Z,68.66
2023-03-24T09:40:20.203Z,71.23
2023-03-24T09:42:50.381Z,68.36
2023-03-24T09:45:20.368Z,68.76
2023-03-24T09:47:52.858Z,68.36
2023-03-24T09:50:58.345Z,67.59
2023-03-24T09:53:57.096Z,65.54
2023-03-24T09:56:25.729Z,68.26
2023-03-24T09:59:03.808Z,68.02
2023-03-24T10:01:31.800Z,66.80
2023-03-24T10:04:00.147Z,66.42
2023-03-24T10:06:54.618Z,67.92
2023-03-24T10:09:31.811Z,68.54
2023-03-24T10:12:28.753Z,67.73
2023-03-24T10:15:24.362Z,66.01
2023-03-24T10:18:13.707Z,64.06
2023-03-24T10:20:58.072Z,62.80
2023-03-24T10:23:33.008Z,62.82
2023-03-24T10:26:33.555Z,64.04
2023-03-24T10:29:28.309Z,63.00
2023-03-24T10:32:10.250Z,64.70
2023-03-24T10:34:41.031Z,64.15
2023-03-24T10:37:07.483Z,63.92
2023-03-24T10:39:44.326Z,64.03
2023-03-24T10:42:17.930Z,63.51
2023-03-24T10:44:47.070Z,64.73
2023-03-24T10:47:14.754Z,65.09
2023-03-24T10:49:53.900Z,67.02
2023-03-24T10:52:24.552Z,69.16
2023-03-24T10:55:02.355Z,67.75
2023-03-24T10:57:32.812Z,69.20
2023-03-24T10:59:59.058Z,69.25
2023-03-24T11:02:43.763Z,70.48
2023-03-24T11:05:11.447Z,71.21
2023-03-24T11:07:40.184Z,71.02
2023-03-24T11:10:09.652Z,70.79
2023-03-24T11:12:39.866Z,73.63
2023-03-24T11:15:22.876Z,75.11
2023-03-24T11:17:57.219Z,74.03
2023-03-24T11:20:38.521Z,72.47
2023-03-24T11:23:29.404Z,71.95
2023-03-24T11:26:22.453Z,70.16
2023-03-24T11:28:57.896Z,70.05
2023-03-24T11:31:27.644Z,70.17
2023-03-24T11:34:02.419Z,67.71
2023-03-24T11:36:28.724Z,70.31
2023-03-24T11:39:11.523Z,69.11
2023-03-24T11:41:50.118Z,70.45
2023-03-24T11:44:27.391Z,71.45
2023-03-24T11:47:06.554Z,71.89
2023-03-24T11:49:49.820Z,72.83
2023-03-24T11:52:28.328Z,74.23
2023-03-24T11:54:55.404Z,75.77
2023-03-24T11:57:52.247Z,76.48
2023-03-24T12:00:32.282Z,76.11
2023-03-24T12:03:06.976Z,75.49
2023-03-24T12:06:02.394Z,76.83
2023-03-24T12:08:54.631Z,79.42
2023-03-24T12:11:31.659Z,77.05
2023-03-24T12:14:01.599Z,77.54
2023-03-24T12:16:41.439Z,77.76
2023-03-24T12:19:39.764Z,77.88
2023-03-24T12:22:19.735Z,77.51
2023-03-24T12:25:01.093Z,77.95
2023-03-24T12:27:53.672Z,72.65
2023-03-24T12:30:38.679Z,67.33
2023-03-24T12:33:36.405Z,66.29
2023-03-24T12:36:18.858Z,66.96
2023-03-24T12:39:06.486Z,68.19
2023-03-24T12:41:42.942Z,70.21
2023-03-24T12:44:40.045Z,69.16
2023-03-24T12:47:39.700Z,67.28
2023-03-24T12:50:20.231Z,67.06
2023-03-24T12:53:14.478Z,68.01
2023-03-24T12:55:48.247Z,69.95
2023-03-24T12:58:44.712Z,72.53
2023-03-24T13:01:29.584Z,71.91
2023-03-24T13:04:03.522Z,73.62
2023-03-24T13:06:37.800Z,77.55
2023-03-24T13:09:39.438Z,75.15
2023-03-24T13:12:21.250Z,77.81
2023-03-24T13:15:12.428Z,80.83
2023-03-24T13:17:57.020Z,79.21
2023-03-24T13:20:29.518Z,81.04
2023-03-24T13:23:00.484Z,79.65
2023-03-24T13:25:51.126Z,80.22
2023-03-24T13:28:30.238Z,80.37
2023-03-24T13:30:57.423Z,79.47
2023-03-24T13:33:29.167Z,78.31
2023-03-24T13:36:47.878Z,79.17
2023-03-24T13:39:23.014Z,75.79
2023-03-24T13:41:55.483Z,74.51
2023-03-24T13:44:23.983Z,74.65
2023-03-24T13:47:18.970Z,75.12
2023-03-24T13:50:11.709Z,73.93
2023-03-24T13:52:44.333Z,72.30
2023-03-24T13:55:15.344Z,72.02
2023-03-24T13:57:54.089Z,75.34
2023-03-24T14:00:24.524Z,73.95
2023-03-24T14:02:55.635Z,74.96
2023-03-24T14:05:21.977Z,75.32
2023-03-24T14:08:10.766Z,75.20
2023-03-24T14:10:40.155Z,77.61
2023-03-24T14:13:17.041Z,78.22
2023-03-24T14:16:02.151Z,80.41
2023-03-24T14:18:29.577Z,82.57
2023-03-24T14:21:01.891Z,81.44
2023-03-24T14:23:39.840Z,79.33
2023-03-24T14:26:28.856Z,73.49
2023-03-24T14:28:57.649Z,72.08
2023-03-24T14:31:32.209Z,72.53
2023-03-24T14:34:05.013Z,68.16
2023-03-24T14:36:43.066Z,65.95
2023-03-24T14:39:27.731Z,68.58
2023-03-24T14:41:59.028Z,69.15
2023-03-24T14:44:47.420Z,67.55
2023-03-24T14:47:23.538Z,71.10
2023-03-24T14:49:55.068Z,73.36
2023-03-24T14:52:34.046Z,68.64
2023-03-24T14:55:06.106Z,65.94
2023-03-24T14:57:59.321Z,67.42
2023-03-24T15:00:32.711Z,65.57
2023-03-24T15:03:12.023Z,64.11
2023-03-24T15:05:38.501Z,64.56
2023-03-24T15:08:21.944Z,63.53
2023-03-24T15:10:53.290Z,61.23
2023-03-24T15:13:28.414Z,60.94
2023-03-24T15:15:59.880Z,63.72
2023-03-24T15:18:26.590Z,64.29
2023-03-24T15:20:54.089Z,66.89
2023-03-24T15:23:26.210Z,67.46
2023-03-24T15:25:56.261Z,69.20
2023-03-24T15:28:28.756Z,69.67
2023-03-24T15:30:58.941Z,70.25
2023-03-24T15:33:27.058Z,71.99
2023-03-24T15:35:58.870Z,72.85
2023-03-24T15:38:32.972Z,68.27
2023-03-24T15:41:11.098Z,62.95
2023-03-24T15:43:44.509Z,62.46
2023-03-24T15:46:27.647Z,60.16
2023-03-24T15:48:58.965Z,59.87
2023-03-24T15:51:49.335Z,60.93
2023-03-24T15:54:24.662Z,65.67
2023-03-24T15:57:14.107Z,69.17
2023-03-24T15:59:56.053Z,70.08
2023-03-24T16:02:45.851Z,70.22
2023-03-24T16:05:30.640Z,71.30
2023-03-24T16:08:23.173Z,71.96
2023-03-24T16:10:58.220Z,72.74
2023-03-24T16:13:27.979Z,73.14
2023-03-24T16:15:57.869Z,71.64
2023-03-24T16:18:30.381Z,72.88
2023-03-24T16:20:59.113Z,72.68
2023-03-24T16:23:32.530Z,73.77
2023-03-24T16:26:01.438Z,73.87
2023-03-24T16:28:32.753Z,73.02
2023-03-24T16:31:03.921Z,73.98
2023-03-24T16:33:37.894Z,73.53
2023-03-24T16:36:04.443Z,73.97
2023-03-24T16:38:42.317Z,75.73
2023-03-24T16:41:10.990Z,74.76
2023-03-24T16:43:40.701Z,75.97
2023-03-24T16:46:29.721Z,76.57
2023-03-24T16:48:57.378Z,74.45
2023-03-24T16:51:24.368Z,71.93
2023-03-24T16:53:50.867Z,73.58
2023-03-24T16:56:21.970Z,75.20
2023-03-24T16:58:49.608Z,76.26
2023-03-24T17:01:18.882Z,78.66
2023-03-24T17:03:45.528Z,76.54
2023-03-24T17:06:12.277Z,78.16
2023-03-24T17:08:38.745Z,77.67
2023-03-24T17:11:07.524Z,76.85
2023-03-24T17:13:33.965Z,78.01
2023-03-24T17:16:15.900Z,78.51
2023-03-24T17:18:42.823Z,78.68
2023-03-24T17:21:18.250Z,78.88
2023-03-24T17:23:50.458Z,79.41
2023-03-24T17:26:19.495Z,79.44
2023-03-24T17:28:48.733Z,79.97
2023-03-24T17:31:15.316Z,80.79
2023-03-24T17:33:41.903Z,81.37
2023-03-24T17:36:13.940Z,83.05
2023-03-24T17:38:40.298Z,83.10
2023-03-24T17:41:06.983Z,83.21
2023-03-24T17:43:33.782Z,84.36
2023-03-24T17:46:03.971Z,84.71
2023-03-24T17:48:30.751Z,84.87
2023-03-24T17:50:57.108Z,84.50
2023-03-24T17:53:26.970Z,84.22
2023-03-24T17:55:58.936Z,83.91
2023-03-24T17:58:27.106Z,83.42
2023-03-24T18:00:54.133Z,83.19
2023-03-24T18:03:25.981Z,83.25
2023-03-24T18:05:57.097Z,84.24
2023-03-24T18:08:24.635Z,83.54
2023-03-24T18:10:53.073Z,82.20
2023-03-24T18:13:19.602Z,82.40
2023-03-24T18:15:50.869Z,80.00
2023-03-24T18:18:17.258Z,78.24
2023-03-24T18:20:46.546Z,78.17
2023-03-24T18:23:22.614Z,77.66
2023-03-24T18:26:01.796Z,77.83
2023-03-24T18:28:32.520Z,78.68
2023-03-24T18:30:58.874Z,79.49
2023-03-24T18:33:28.395Z,79.47
2023-03-24T18:35:55.289Z,80.41
2023-03-24T18:38:29.287Z,81.53
2023-03-24T18:41:04.931Z,82.48
2023-03-24T18:43:34.704Z,83.42
2023-03-24T18:46:05.132Z,84.46
2023-03-24T18:48:31.474Z,85.23
2023-03-24T18:50:57.807Z,86.14
2023-03-24T18:53:25.362Z,86.05
2023-03-24T18:55:54.713Z,84.95
2023-03-24T18:58:24.338Z,82.85
2023-03-24T19:00:54.602Z,82.62
2023-03-24T19:03:22.368Z,81.15
2023-03-24T19:05:49.928Z,80.50
2023-03-24T19:08:35.622Z,80.41
2023-03-24T19:11:04.557Z,80.37
2023-03-24T19:13:30.939Z,79.87
2023-03-24T19:15:58.522Z,80.25
2023-03-24T19:18:25.559Z,80.49
2023-03-24T19:20:56.566Z,80.23
2023-03-24T19:23:27.960Z,80.02
2023-03-24T19:25:57.268Z,79.63
2023-03-24T19:28:31.551Z,79.51
2023-03-24T19:31:00.205Z,79.94
2023-03-24T19:33:27.488Z,79.78
2023-03-24T19:35:55.576Z,79.79
2023-03-24T19:38:22.362Z,78.43
2023-03-24T19:40:48.908Z,77.07
2023-03-24T19:43:15.246Z,75.98
2023-03-24T19:45:41.557Z,75.87
2023-03-24T19:48:11.324Z,75.62
2023-03-24T19:50:38.032Z,75.16
2023-03-24T19:53:08.380Z,74.61
2023-03-24T19:55:34.965Z,74.94
2023-03-24T19:58:04.316Z,74.68
2023-03-24T20:00:30.861Z,74.85
2023-03-24T20:02:57.286Z,74.77
2023-03-24T20:05:23.803Z,75.03
2023-03-24T20:07:51.329Z,75.24
2023-03-24T20:10:17.785Z,75.24
2023-03-24T20:12:44.097Z,74.24
2023-03-24T20:15:13.254Z,74.65
2023-03-24T20:17:39.666Z,75.76
2023-03-24T20:20:08.674Z,76.27
2023-03-24T20:22:35.073Z,75.87
2023-03-24T20:25:01.477Z,76.07
2023-03-24T20:27:27.891Z,76.21
2023-03-24T20:29:59.033Z,76.62
2023-03-24T20:32:25.588Z,76.17
2023-03-24T20:34:52.093Z,76.78
2023-03-24T20:37:21.256Z,76.97
2023-03-24T20:39:51.022Z,76.98
2023-03-24T20:42:19.753Z,77.29
2023-03-24T20:44:46.078Z,79.39
2023-03-24T20:47:12.435Z,80.71
2023-03-24T20:49:38.728Z,82.74
2023-03-24T20:52:05.224Z,84.33
2023-03-24T20:54:31.552Z,85.27
2023-03-24T20:56:59.614Z,85.12
2023-03-24T20:59:25.951Z,84.51
2023-03-24T21:01:52.265Z,83.09
2023-03-24T21:04:22.533Z,81.57
2023-03-24T21:06:48.885Z,82.18
2023-03-24T21:09:21.638Z,82.43
2023-03-24T21:11:51.052Z,83.34
2023-03-24T21:14:17.448Z,83.68
2023-03-24T21:16:44.056Z,83.22
2023-03-24T21:19:10.495Z,83.23
2023-03-24T21:21:37.009Z,82.69
2023-03-24T21:24:09.294Z,82.70
2023-03-24T21:26:38.018Z,81.19
2023-03-24T21:29:04.341Z,80.99
2023-03-24T21:31:30.667Z,79.94
2023-03-24T21:33:59.949Z,78.91
2023-03-24T21:36:27.465Z,77.95
2023-03-24T21:38:58.398Z,76.06
2023-03-24T21:41:24.839Z,75.71
2023-03-24T21:43:51.504Z,75.24
2023-03-24T21:46:20.272Z,75.12
2023-03-24T21:49:00.655Z,74.76
2023-03-24T21:51:29.405Z,74.87
2023-03-24T21:53:56.284Z,75.41
2023-03-24T21:56:23.174Z,75.09
2023-03-24T21:58:49.508Z,75.25
2023-03-24T22:01:20.013Z,74.98
2023-03-24T22:03:46.456Z,75.48
2023-03-24T22:06:13.009Z,76.31
2023-03-24T22:08:40.046Z,76.52
2023-03-24T22:11:09.503Z,76.64
2023-03-24T22:13:35.986Z,77.40
2023-03-24T22:16:05.826Z,80.27
2023-03-24T22:18:33.855Z,82.26
2023-03-24T22:21:06.509Z,83.34
2023-03-24T22:23:37.355Z,84.03
2023-03-24T22:26:09.617Z,85.09
2023-03-24T22:28:36.921Z,84.54
2023-03-24T22:31:08.075Z,84.93
2023-03-24T22:33:35.071Z,85.48
2023-03-24T22:36:02.323Z,86.25
2023-03-24T22:38:29.819Z,85.68
2023-03-24T22:41:01.194Z,85.95
2023-03-24T22:43:28.929Z,86.75
2023-03-24T22:45:56.502Z,86.47
2023-03-24T22:48:23.535Z,86.66
2023-03-24T22:50:50.432Z,87.08
2023-03-24T22:53:17.095Z,87.53
2023-03-24T22:55:48.221Z,87.59
2023-03-24T22:58:16.840Z,87.53
2023-03-24T23:00:48.666Z,87.29
2023-03-24T23:03:15.276Z,85.96
2023-03-24T23:05:47.323Z,86.20
2023-03-24T23:08:20.642Z,85.76
2023-03-24T23:10:47.635Z,86.76
2023-03-24T23:13:17.260Z,85.34
2023-03-24T23:15:45.155Z,86.43
2023-03-24T23:18:11.562Z,85.19
2023-03-24T23:20:37.907Z,80.95
2023-03-24T23:23:06.779Z,79.57
2023-03-24T23:25:45.148Z,78.87
2023-03-24T23:28:14.409Z,78.88
2023-03-24T23:30:41.219Z,79.02
2023-03-24T23:33:10.864Z,77.94
2023-03-24T23:35:39.748Z,78.79
2023-03-24T23:38:06.081Z,78.15
2023-03-24T23:40:32.371Z,78.37
2023-03-24T23:42:59.940Z,78.96
2023-03-24T23:45:27.705Z,78.13
2023-03-24T23:47:56.783Z,78.09
2023-03-24T23:50:23.524Z,78.58
2023-03-24T23:52:49.824Z,77.99
2023-03-24T23:55:20.024Z,77.70
2023-03-24T23:57:47.191Z,79.28
